sensor_id;sensor_type;location;lat;lon;timestamp;P1;durP1;ratioP1;P2;durP2;ratioP2
39518;SDS011;25200;53.394;10.414;2022-08-18T00:00:46;7.88;;;4.95;;
39518;SDS011;25200;53.394;10.414;2022-08-18T00:03:12;10.60;;;5.22;;
39518;SDS011;25200;53.394;10.414;2022-08-18T00:05:39;9.30;;;5.53;;
39518;SDS011;25200;53.394;10.414;2022-08-18T00:08:05;12.30;;;5.55;;
39518;SDS011;25200;53.394;10.414;2022-08-18T00:10:31;8.43;;;5.50;;
39518;SDS011;25200;53.394;10.414;2022-08-18T00:12:58;9.80;;;5.68;;
39518;SDS011;25200;53.394;10.414;2022-08-18T00:15:24;9.68;;;6.28;;
39518;SDS011;25200;53.394;10.414;2022-08-18T00:17:50;8.10;;;6.07;;
39518;SDS011;25200;53.394;10.414;2022-08-18T00:20:17;9.82;;;5.97;;
39518;SDS011;25200;53.394;10.414;2022-08-18T00:22:46;8.82;;;6.22;;
39518;SDS011;25200;53.394;10.414;2022-08-18T00:25:13;8.57;;;5.60;;
39518;SDS011;25200;53.394;10.414;2022-08-18T00:27:39;10.85;;;6.30;;
39518;SDS011;25200;53.394;10.414;2022-08-18T00:30:10;9.50;;;6.82;;
39518;SDS011;25200;53.394;10.414;2022-08-18T00:32:40;10.15;;;6.82;;
39518;SDS011;25200;53.394;10.414;2022-08-18T00:35:09;9.10;;;6.40;;
39518;SDS011;25200;53.394;10.414;2022-08-18T00:37:37;10.15;;;7.10;;
39518;SDS011;25200;53.394;10.414;2022-08-18T00:40:04;11.02;;;7.28;;
39518;SDS011;25200;53.394;10.414;2022-08-18T00:42:32;8.98;;;6.57;;
39518;SDS011;25200;53.394;10.414;2022-08-18T00:45:01;10.10;;;7.50;;
39518;SDS011;25200;53.394;10.414;2022-08-18T00:47:29;14.60;;;7.35;;
39518;SDS011;25200;53.394;10.414;2022-08-18T00:49:55;14.98;;;7.18;;
39518;SDS011;25200;53.394;10.414;2022-08-18T00:52:21;13.23;;;7.25;;
39518;SDS011;25200;53.394;10.414;2022-08-18T00:54:48;12.05;;;7.53;;
39518;SDS011;25200;53.394;10.414;2022-08-18T00:57:16;9.70;;;7.13;;
39518;SDS011;25200;53.394;10.414;2022-08-18T01:02:47;11.18;;;7.90;;
39518;SDS011;25200;53.394;10.414;2022-08-18T01:05:20;10.43;;;7.82;;
39518;SDS011;25200;53.394;10.414;2022-08-18T01:07:51;10.02;;;8.13;;
39518;SDS011;25200;53.394;10.414;2022-08-18T01:10:20;12.35;;;8.43;;
39518;SDS011;25200;53.394;10.414;2022-08-18T01:12:52;9.35;;;8.00;;
39518;SDS011;25200;53.394;10.414;2022-08-18T01:15:18;11.18;;;8.00;;
39518;SDS011;25200;53.394;10.414;2022-08-18T01:17:45;10.82;;;7.88;;
39518;SDS011;25200;53.394;10.414;2022-08-18T01:20:42;12.20;;;8.35;;
39518;SDS011;25200;53.394;10.414;2022-08-18T01:23:32;13.93;;;8.43;;
39518;SDS011;25200;53.394;10.414;2022-08-18T01:25:59;11.77;;;7.50;;
39518;SDS011;25200;53.394;10.414;2022-08-18T01:28:38;12.30;;;8.73;;
39518;SDS011;25200;53.394;10.414;2022-08-18T01:31:06;11.73;;;8.65;;
39518;SDS011;25200;53.394;10.414;2022-08-18T01:33:35;10.43;;;8.13;;
39518;SDS011;25200;53.394;10.414;2022-08-18T01:38:31;12.10;;;8.02;;
39518;SDS011;25200;53.394;10.414;2022-08-18T01:40:58;12.68;;;8.15;;
39518;SDS011;25200;53.394;10.414;2022-08-18T01:43:24;10.43;;;8.52;;
39518;SDS011;25200;53.394;10.414;2022-08-18T01:45:50;10.93;;;9.25;;
39518;SDS011;25200;53.394;10.414;2022-08-18T01:48:16;11.20;;;8.43;;
39518;SDS011;25200;53.394;10.414;2022-08-18T01:50:42;14.43;;;8.70;;
39518;SDS011;25200;53.394;10.414;2022-08-18T01:53:09;13.20;;;9.07;;
39518;SDS011;25200;53.394;10.414;2022-08-18T01:55:36;12.57;;;9.18;;
39518;SDS011;25200;53.394;10.414;2022-08-18T01:58:05;17.13;;;9.25;;
39518;SDS011;25200;53.394;10.414;2022-08-18T02:00:31;13.27;;;8.40;;
39518;SDS011;25200;53.394;10.414;2022-08-18T02:03:00;11.43;;;9.23;;
39518;SDS011;25200;53.394;10.414;2022-08-18T02:05:33;11.55;;;8.43;;
39518;SDS011;25200;53.394;10.414;2022-08-18T02:08:03;15.68;;;8.02;;
39518;SDS011;25200;53.394;10.414;2022-08-18T02:10:30;10.73;;;8.02;;
39518;SDS011;25200;53.394;10.414;2022-08-18T02:12:56;11.98;;;7.57;;
39518;SDS011;25200;53.394;10.414;2022-08-18T02:15:21;9.82;;;6.80;;
39518;SDS011;25200;53.394;10.414;2022-08-18T02:17:47;11.52;;;7.93;;
39518;SDS011;25200;53.394;10.414;2022-08-18T02:20:14;13.18;;;7.47;;
39518;SDS011;25200;53.394;10.414;2022-08-18T02:22:42;12.43;;;7.85;;
39518;SDS011;25200;53.394;10.414;2022-08-18T02:25:09;10.68;;;7.20;;
39518;SDS011;25200;53.394;10.414;2022-08-18T02:27:35;9.88;;;7.53;;
39518;SDS011;25200;53.394;10.414;2022-08-18T02:30:03;9.63;;;6.95;;
39518;SDS011;25200;53.394;10.414;2022-08-18T02:32:32;11.02;;;7.72;;
39518;SDS011;25200;53.394;10.414;2022-08-18T02:34:58;8.75;;;6.93;;
39518;SDS011;25200;53.394;10.414;2022-08-18T02:37:24;9.85;;;6.82;;
39518;SDS011;25200;53.394;10.414;2022-08-18T02:39:49;11.57;;;7.05;;
39518;SDS011;25200;53.394;10.414;2022-08-18T02:42:15;14.57;;;7.13;;
39518;SDS011;25200;53.394;10.414;2022-08-18T02:44:41;10.93;;;7.75;;
39518;SDS011;25200;53.394;10.414;2022-08-18T02:47:07;10.25;;;6.80;;
39518;SDS011;25200;53.394;10.414;2022-08-18T02:49:33;9.93;;;7.80;;
39518;SDS011;25200;53.394;10.414;2022-08-18T02:52:01;12.13;;;7.68;;
39518;SDS011;25200;53.394;10.414;2022-08-18T02:54:27;10.93;;;7.82;;
39518;SDS011;25200;53.394;10.414;2022-08-18T02:56:53;8.43;;;6.45;;
39518;SDS011;25200;53.394;10.414;2022-08-18T02:59:20;9.95;;;7.72;;
39518;SDS011;25200;53.394;10.414;2022-08-18T03:01:52;9.02;;;6.65;;
39518;SDS011;25200;53.394;10.414;2022-08-18T03:04:21;9.32;;;6.55;;
39518;SDS011;25200;53.394;10.414;2022-08-18T03:06:51;12.07;;;7.40;;
39518;SDS011;25200;53.394;10.414;2022-08-18T03:09:18;8.48;;;6.38;;
39518;SDS011;25200;53.394;10.414;2022-08-18T03:11:45;17.83;;;7.10;;
39518;SDS011;25200;53.394;10.414;2022-08-18T03:14:12;11.82;;;7.18;;
39518;SDS011;25200;53.394;10.414;2022-08-18T03:16:39;9.43;;;7.68;;
39518;SDS011;25200;53.394;10.414;2022-08-18T03:19:07;9.00;;;6.30;;
39518;SDS011;25200;53.394;10.414;2022-08-18T03:21:33;8.90;;;7.22;;
39518;SDS011;25200;53.394;10.414;2022-08-18T03:24:03;8.77;;;6.53;;
39518;SDS011;25200;53.394;10.414;2022-08-18T03:26:29;10.73;;;7.97;;
39518;SDS011;25200;53.394;10.414;2022-08-18T03:28:57;9.13;;;7.13;;
39518;SDS011;25200;53.394;10.414;2022-08-18T03:31:27;8.52;;;6.53;;
39518;SDS011;25200;53.394;10.414;2022-08-18T03:33:56;12.35;;;8.25;;
39518;SDS011;25200;53.394;10.414;2022-08-18T03:36:25;11.93;;;8.35;;
39518;SDS011;25200;53.394;10.414;2022-08-18T03:38:52;10.88;;;7.45;;
39518;SDS011;25200;53.394;10.414;2022-08-18T03:41:22;9.63;;;7.45;;
39518;SDS011;25200;53.394;10.414;2022-08-18T03:43:50;9.88;;;7.47;;
39518;SDS011;25200;53.394;10.414;2022-08-18T03:46:16;10.18;;;8.40;;
39518;SDS011;25200;53.394;10.414;2022-08-18T03:48:45;12.35;;;8.23;;
39518;SDS011;25200;53.394;10.414;2022-08-18T03:51:22;12.48;;;7.70;;
39518;SDS011;25200;53.394;10.414;2022-08-18T03:53:50;10.00;;;7.05;;
39518;SDS011;25200;53.394;10.414;2022-08-18T03:56:20;9.20;;;6.22;;
39518;SDS011;25200;53.394;10.414;2022-08-18T03:58:49;9.45;;;7.32;;
39518;SDS011;25200;53.394;10.414;2022-08-18T04:01:21;12.82;;;8.52;;
39518;SDS011;25200;53.394;10.414;2022-08-18T04:03:53;13.23;;;8.32;;
39518;SDS011;25200;53.394;10.414;2022-08-18T04:06:26;10.52;;;6.82;;
39518;SDS011;25200;53.394;10.414;2022-08-18T04:08:58;9.88;;;7.90;;
39518;SDS011;25200;53.394;10.414;2022-08-18T04:11:26;15.25;;;8.32;;
39518;SDS011;25200;53.394;10.414;2022-08-18T04:13:53;11.93;;;8.02;;
39518;SDS011;25200;53.394;10.414;2022-08-18T04:16:21;14.07;;;8.73;;
39518;SDS011;25200;53.394;10.414;2022-08-18T04:18:51;10.43;;;8.07;;
39518;SDS011;25200;53.394;10.414;2022-08-18T04:21:17;13.27;;;9.40;;
39518;SDS011;25200;53.394;10.414;2022-08-18T04:23:43;13.07;;;9.18;;
39518;SDS011;25200;53.394;10.414;2022-08-18T04:26:09;17.00;;;10.35;;
39518;SDS011;25200;53.394;10.414;2022-08-18T04:28:36;13.30;;;10.07;;
39518;SDS011;25200;53.394;10.414;2022-08-18T04:31:10;11.82;;;8.77;;
39518;SDS011;25200;53.394;10.414;2022-08-18T04:36:08;11.23;;;8.05;;
39518;SDS011;25200;53.394;10.414;2022-08-18T04:38:36;12.90;;;8.40;;
39518;SDS011;25200;53.394;10.414;2022-08-18T04:41:03;14.70;;;10.18;;
39518;SDS011;25200;53.394;10.414;2022-08-18T04:43:30;9.82;;;7.20;;
39518;SDS011;25200;53.394;10.414;2022-08-18T04:45:56;11.80;;;8.93;;
39518;SDS011;25200;53.394;10.414;2022-08-18T04:48:27;12.75;;;9.48;;
39518;SDS011;25200;53.394;10.414;2022-08-18T04:50:57;15.43;;;9.77;;
39518;SDS011;25200;53.394;10.414;2022-08-18T04:53:27;12.70;;;9.30;;
39518;SDS011;25200;53.394;10.414;2022-08-18T04:56:16;11.87;;;8.20;;
39518;SDS011;25200;53.394;10.414;2022-08-18T04:59:11;12.73;;;9.00;;
39518;SDS011;25200;53.394;10.414;2022-08-18T05:01:41;15.88;;;9.50;;
39518;SDS011;25200;53.394;10.414;2022-08-18T05:06:38;15.88;;;11.57;;
39518;SDS011;25200;53.394;10.414;2022-08-18T05:09:06;14.00;;;10.68;;
39518;SDS011;25200;53.394;10.414;2022-08-18T05:11:33;17.15;;;11.50;;
39518;SDS011;25200;53.394;10.414;2022-08-18T05:14:04;13.85;;;10.43;;
39518;SDS011;25200;53.394;10.414;2022-08-18T05:16:32;17.80;;;11.35;;
39518;SDS011;25200;53.394;10.414;2022-08-18T05:19:07;16.48;;;12.13;;
39518;SDS011;25200;53.394;10.414;2022-08-18T05:21:38;14.00;;;10.60;;
39518;SDS011;25200;53.394;10.414;2022-08-18T05:24:06;15.13;;;11.38;;
39518;SDS011;25200;53.394;10.414;2022-08-18T05:26:33;14.10;;;11.60;;
39518;SDS011;25200;53.394;10.414;2022-08-18T05:29:00;13.00;;;10.60;;
39518;SDS011;25200;53.394;10.414;2022-08-18T05:31:26;14.80;;;11.18;;
39518;SDS011;25200;53.394;10.414;2022-08-18T05:33:53;14.80;;;12.20;;
39518;SDS011;25200;53.394;10.414;2022-08-18T05:41:41;13.57;;;10.35;;
39518;SDS011;25200;53.394;10.414;2022-08-18T05:44:14;11.07;;;8.15;;
39518;SDS011;25200;53.394;10.414;2022-08-18T05:46:48;12.57;;;9.45;;
39518;SDS011;25200;53.394;10.414;2022-08-18T05:49:19;12.77;;;8.40;;
39518;SDS011;25200;53.394;10.414;2022-08-18T05:51:49;12.50;;;10.05;;
39518;SDS011;25200;53.394;10.414;2022-08-18T05:54:19;14.20;;;10.35;;
39518;SDS011;25200;53.394;10.414;2022-08-18T05:57:06;20.35;;;11.40;;
39518;SDS011;25200;53.394;10.414;2022-08-18T06:04:44;12.77;;;9.52;;
39518;SDS011;25200;53.394;10.414;2022-08-18T06:07:15;14.75;;;9.73;;
39518;SDS011;25200;53.394;10.414;2022-08-18T06:09:54;14.00;;;10.20;;
39518;SDS011;25200;53.394;10.414;2022-08-18T06:12:25;13.60;;;10.90;;
39518;SDS011;25200;53.394;10.414;2022-08-18T06:15:03;13.32;;;9.77;;
39518;SDS011;25200;53.394;10.414;2022-08-18T06:17:42;14.80;;;10.32;;
39518;SDS011;25200;53.394;10.414;2022-08-18T06:26:11;13.30;;;10.77;;
39518;SDS011;25200;53.394;10.414;2022-08-18T06:31:42;12.48;;;9.90;;
39518;SDS011;25200;53.394;10.414;2022-08-18T06:34:11;12.18;;;9.43;;
39518;SDS011;25200;53.394;10.414;2022-08-18T06:39:31;14.55;;;11.05;;
39518;SDS011;25200;53.394;10.414;2022-08-18T06:41:58;15.65;;;10.57;;
39518;SDS011;25200;53.394;10.414;2022-08-18T06:44:32;13.13;;;11.05;;
39518;SDS011;25200;53.394;10.414;2022-08-18T06:47:12;16.33;;;11.55;;
39518;SDS011;25200;53.394;10.414;2022-08-18T06:49:49;15.60;;;10.93;;
39518;SDS011;25200;53.394;10.414;2022-08-18T06:54:59;14.93;;;9.95;;
39518;SDS011;25200;53.394;10.414;2022-08-18T06:57:37;12.98;;;9.90;;
39518;SDS011;25200;53.394;10.414;2022-08-18T07:02:53;14.32;;;9.27;;
39518;SDS011;25200;53.394;10.414;2022-08-18T07:05:26;12.40;;;9.45;;
39518;SDS011;25200;53.394;10.414;2022-08-18T07:10:31;13.95;;;10.38;;
39518;SDS011;25200;53.394;10.414;2022-08-18T07:13:14;13.68;;;10.30;;
39518;SDS011;25200;53.394;10.414;2022-08-18T07:15:42;16.33;;;12.07;;
39518;SDS011;25200;53.394;10.414;2022-08-18T07:18:10;17.35;;;12.35;;
39518;SDS011;25200;53.394;10.414;2022-08-18T07:20:41;16.55;;;12.88;;
39518;SDS011;25200;53.394;10.414;2022-08-18T07:25:51;17.55;;;13.82;;
39518;SDS011;25200;53.394;10.414;2022-08-18T07:28:38;20.17;;;15.40;;
39518;SDS011;25200;53.394;10.414;2022-08-18T07:34:24;22.92;;;17.08;;
39518;SDS011;25200;53.394;10.414;2022-08-18T07:37:08;22.20;;;15.82;;
39518;SDS011;25200;53.394;10.414;2022-08-18T07:44:58;27.23;;;18.80;;
39518;SDS011;25200;53.394;10.414;2022-08-18T07:47:33;25.02;;;17.40;;
39518;SDS011;25200;53.394;10.414;2022-08-18T07:50:17;29.13;;;19.30;;
39518;SDS011;25200;53.394;10.414;2022-08-18T07:52:45;30.50;;;21.00;;
39518;SDS011;25200;53.394;10.414;2022-08-18T07:55:28;31.08;;;20.45;;
39518;SDS011;25200;53.394;10.414;2022-08-18T08:03:46;23.08;;;16.85;;
39518;SDS011;25200;53.394;10.414;2022-08-18T08:09:05;22.00;;;16.02;;
39518;SDS011;25200;53.394;10.414;2022-08-18T08:11:40;22.40;;;15.52;;
39518;SDS011;25200;53.394;10.414;2022-08-18T08:14:20;24.58;;;15.55;;
39518;SDS011;25200;53.394;10.414;2022-08-18T08:22:17;26.13;;;17.40;;
39518;SDS011;25200;53.394;10.414;2022-08-18T08:24:59;23.33;;;15.88;;
39518;SDS011;25200;53.394;10.414;2022-08-18T08:30:42;26.33;;;18.00;;
39518;SDS011;25200;53.394;10.414;2022-08-18T08:33:23;29.73;;;19.30;;
39518;SDS011;25200;53.394;10.414;2022-08-18T08:35:56;27.10;;;17.20;;
39518;SDS011;25200;53.394;10.414;2022-08-18T08:38:35;27.50;;;18.92;;
39518;SDS011;25200;53.394;10.414;2022-08-18T08:41:04;26.83;;;18.80;;
39518;SDS011;25200;53.394;10.414;2022-08-18T08:44:36;29.05;;;19.67;;
39518;SDS011;25200;53.394;10.414;2022-08-18T08:46:51;27.42;;;18.58;;
39518;SDS011;25200;53.394;10.414;2022-08-18T08:51:57;30.85;;;18.35;;
39518;SDS011;25200;53.394;10.414;2022-08-18T08:54:39;30.55;;;18.60;;
39518;SDS011;25200;53.394;10.414;2022-08-18T08:57:28;27.95;;;18.58;;
39518;SDS011;25200;53.394;10.414;2022-08-18T08:59:57;24.52;;;18.25;;
39518;SDS011;25200;53.394;10.414;2022-08-18T09:05:12;30.30;;;21.52;;
39518;SDS011;25200;53.394;10.414;2022-08-18T09:16:25;26.70;;;17.75;;
39518;SDS011;25200;53.394;10.414;2022-08-18T09:21:50;27.17;;;18.30;;
39518;SDS011;25200;53.394;10.414;2022-08-18T09:24:40;29.23;;;18.98;;
39518;SDS011;25200;53.394;10.414;2022-08-18T09:35:46;30.27;;;19.58;;
39518;SDS011;25200;53.394;10.414;2022-08-18T09:38:27;28.27;;;18.15;;
39518;SDS011;25200;53.394;10.414;2022-08-18T09:41:18;25.02;;;17.55;;
39518;SDS011;25200;53.394;10.414;2022-08-18T09:49:50;28.25;;;18.75;;
39518;SDS011;25200;53.394;10.414;2022-08-18T10:00:34;23.75;;;16.38;;
39518;SDS011;25200;53.394;10.414;2022-08-18T10:03:01;29.63;;;19.23;;
39518;SDS011;25200;53.394;10.414;2022-08-18T10:05:34;31.30;;;19.38;;
39518;SDS011;25200;53.394;10.414;2022-08-18T10:10:49;30.13;;;19.95;;
39518;SDS011;25200;53.394;10.414;2022-08-18T10:22:12;29.60;;;18.23;;
39518;SDS011;25200;53.394;10.414;2022-08-18T10:25:03;26.17;;;17.73;;
39518;SDS011;25200;53.394;10.414;2022-08-18T10:27:35;27.23;;;17.50;;
39518;SDS011;25200;53.394;10.414;2022-08-18T10:33:04;24.30;;;17.40;;
39518;SDS011;25200;53.394;10.414;2022-08-18T10:38:01;25.48;;;18.30;;
39518;SDS011;25200;53.394;10.414;2022-08-18T10:40:37;23.98;;;17.05;;
39518;SDS011;25200;53.394;10.414;2022-08-18T10:43:20;22.05;;;15.32;;
39518;SDS011;25200;53.394;10.414;2022-08-18T10:45:54;23.80;;;14.77;;
39518;SDS011;25200;53.394;10.414;2022-08-18T10:53:20;21.15;;;15.48;;
39518;SDS011;25200;53.394;10.414;2022-08-18T10:56:17;22.25;;;15.07;;
39518;SDS011;25200;53.394;10.414;2022-08-18T11:01:54;22.95;;;13.82;;
39518;SDS011;25200;53.394;10.414;2022-08-18T11:04:42;22.02;;;14.38;;
39518;SDS011;25200;53.394;10.414;2022-08-18T11:09:44;20.02;;;14.90;;
39518;SDS011;25200;53.394;10.414;2022-08-18T11:12:13;22.02;;;14.23;;
39518;SDS011;25200;53.394;10.414;2022-08-18T11:14:55;21.50;;;15.32;;
39518;SDS011;25200;53.394;10.414;2022-08-18T11:20:41;21.25;;;14.10;;
39518;SDS011;25200;53.394;10.414;2022-08-18T11:23:11;18.63;;;12.35;;
39518;SDS011;25200;53.394;10.414;2022-08-18T11:25:39;21.30;;;15.95;;
39518;SDS011;25200;53.394;10.414;2022-08-18T11:28:16;19.00;;;13.85;;
39518;SDS011;25200;53.394;10.414;2022-08-18T11:30:44;21.95;;;14.80;;
39518;SDS011;25200;53.394;10.414;2022-08-18T11:33:19;20.52;;;13.77;;
39518;SDS011;25200;53.394;10.414;2022-08-18T11:35:56;20.88;;;15.07;;
39518;SDS011;25200;53.394;10.414;2022-08-18T11:38:23;25.27;;;15.60;;
39518;SDS011;25200;53.394;10.414;2022-08-18T11:41:13;20.27;;;13.82;;
39518;SDS011;25200;53.394;10.414;2022-08-18T11:43:42;19.63;;;13.52;;
39518;SDS011;25200;53.394;10.414;2022-08-18T11:46:51;20.20;;;14.82;;
39518;SDS011;25200;53.394;10.414;2022-08-18T11:51:56;24.02;;;15.05;;
39518;SDS011;25200;53.394;10.414;2022-08-18T11:54:42;18.02;;;12.00;;
39518;SDS011;25200;53.394;10.414;2022-08-18T11:57:36;21.40;;;15.20;;
39518;SDS011;25200;53.394;10.414;2022-08-18T12:03:04;21.45;;;14.02;;
39518;SDS011;25200;53.394;10.414;2022-08-18T12:05:50;17.08;;;12.30;;
39518;SDS011;25200;53.394;10.414;2022-08-18T12:08:30;15.10;;;10.70;;
39518;SDS011;25200;53.394;10.414;2022-08-18T12:13:45;12.38;;;9.70;;
39518;SDS011;25200;53.394;10.414;2022-08-18T12:16:29;13.57;;;10.57;;
39518;SDS011;25200;53.394;10.414;2022-08-18T12:18:55;13.45;;;11.70;;
39518;SDS011;25200;53.394;10.414;2022-08-18T12:21:21;16.20;;;11.52;;
39518;SDS011;25200;53.394;10.414;2022-08-18T12:23:47;16.63;;;12.13;;
39518;SDS011;25200;53.394;10.414;2022-08-18T12:26:13;13.75;;;10.35;;
39518;SDS011;25200;53.394;10.414;2022-08-18T12:28:39;12.05;;;9.82;;
39518;SDS011;25200;53.394;10.414;2022-08-18T12:31:06;49.55;;;11.27;;
39518;SDS011;25200;53.394;10.414;2022-08-18T12:33:33;13.07;;;9.07;;
39518;SDS011;25200;53.394;10.414;2022-08-18T12:36:00;14.93;;;9.63;;
39518;SDS011;25200;53.394;10.414;2022-08-18T12:38:27;13.85;;;8.90;;
39518;SDS011;25200;53.394;10.414;2022-08-18T12:40:53;36.90;;;10.57;;
39518;SDS011;25200;53.394;10.414;2022-08-18T12:43:19;13.30;;;8.88;;
39518;SDS011;25200;53.394;10.414;2022-08-18T12:45:45;10.15;;;8.65;;
39518;SDS011;25200;53.394;10.414;2022-08-18T12:48:11;11.85;;;9.73;;
39518;SDS011;25200;53.394;10.414;2022-08-18T12:50:37;11.55;;;8.68;;
39518;SDS011;25200;53.394;10.414;2022-08-18T12:53:03;15.38;;;9.88;;
39518;SDS011;25200;53.394;10.414;2022-08-18T12:55:30;9.23;;;7.68;;
39518;SDS011;25200;53.394;10.414;2022-08-18T12:58:00;11.02;;;8.07;;
39518;SDS011;25200;53.394;10.414;2022-08-18T13:00:27;11.43;;;8.48;;
39518;SDS011;25200;53.394;10.414;2022-08-18T13:02:53;12.02;;;8.10;;
39518;SDS011;25200;53.394;10.414;2022-08-18T13:05:19;9.50;;;7.70;;
39518;SDS011;25200;53.394;10.414;2022-08-18T13:07:45;15.88;;;7.55;;
39518;SDS011;25200;53.394;10.414;2022-08-18T13:10:11;10.52;;;7.07;;
39518;SDS011;25200;53.394;10.414;2022-08-18T13:12:36;9.73;;;7.18;;
39518;SDS011;25200;53.394;10.414;2022-08-18T13:15:02;9.90;;;6.55;;
39518;SDS011;25200;53.394;10.414;2022-08-18T13:17:30;10.52;;;7.30;;
39518;SDS011;25200;53.394;10.414;2022-08-18T13:19:56;10.52;;;7.43;;
39518;SDS011;25200;53.394;10.414;2022-08-18T13:22:22;11.75;;;6.90;;
39518;SDS011;25200;53.394;10.414;2022-08-18T13:24:48;9.82;;;6.70;;
39518;SDS011;25200;53.394;10.414;2022-08-18T13:27:14;9.30;;;7.05;;
39518;SDS011;25200;53.394;10.414;2022-08-18T13:29:41;8.57;;;6.93;;
39518;SDS011;25200;53.394;10.414;2022-08-18T13:32:07;11.77;;;6.50;;
39518;SDS011;25200;53.394;10.414;2022-08-18T13:34:33;10.48;;;7.10;;
39518;SDS011;25200;53.394;10.414;2022-08-18T13:36:59;10.52;;;7.35;;
39518;SDS011;25200;53.394;10.414;2022-08-18T13:39:25;9.55;;;7.20;;
39518;SDS011;25200;53.394;10.414;2022-08-18T13:41:53;9.52;;;6.55;;
39518;SDS011;25200;53.394;10.414;2022-08-18T13:44:19;11.32;;;6.72;;
39518;SDS011;25200;53.394;10.414;2022-08-18T13:46:46;10.20;;;6.15;;
39518;SDS011;25200;53.394;10.414;2022-08-18T13:49:13;10.05;;;7.00;;
39518;SDS011;25200;53.394;10.414;2022-08-18T13:51:40;11.45;;;6.85;;
39518;SDS011;25200;53.394;10.414;2022-08-18T13:54:08;8.55;;;6.13;;
39518;SDS011;25200;53.394;10.414;2022-08-18T13:56:37;10.93;;;6.07;;
39518;SDS011;25200;53.394;10.414;2022-08-18T13:59:02;9.00;;;5.82;;
39518;SDS011;25200;53.394;10.414;2022-08-18T14:01:29;9.43;;;6.10;;
39518;SDS011;25200;53.394;10.414;2022-08-18T14:03:56;9.07;;;6.30;;
39518;SDS011;25200;53.394;10.414;2022-08-18T14:06:21;10.63;;;5.97;;
39518;SDS011;25200;53.394;10.414;2022-08-18T14:08:48;8.23;;;5.70;;
39518;SDS011;25200;53.394;10.414;2022-08-18T14:11:14;8.20;;;6.75;;
39518;SDS011;25200;53.394;10.414;2022-08-18T14:13:39;8.13;;;5.45;;
39518;SDS011;25200;53.394;10.414;2022-08-18T14:16:05;7.25;;;5.25;;
39518;SDS011;25200;53.394;10.414;2022-08-18T14:18:32;7.35;;;5.40;;
39518;SDS011;25200;53.394;10.414;2022-08-18T14:20:58;9.35;;;5.25;;
39518;SDS011;25200;53.394;10.414;2022-08-18T14:23:42;8.73;;;5.13;;
39518;SDS011;25200;53.394;10.414;2022-08-18T14:26:26;10.93;;;5.05;;
39518;SDS011;25200;53.394;10.414;2022-08-18T14:29:10;6.90;;;4.70;;
39518;SDS011;25200;53.394;10.414;2022-08-18T14:31:36;8.30;;;4.55;;
39518;SDS011;25200;53.394;10.414;2022-08-18T14:34:02;8.70;;;5.25;;
39518;SDS011;25200;53.394;10.414;2022-08-18T14:36:28;9.00;;;5.40;;
39518;SDS011;25200;53.394;10.414;2022-08-18T14:38:53;7.47;;;5.25;;
39518;SDS011;25200;53.394;10.414;2022-08-18T14:41:19;6.82;;;5.05;;
39518;SDS011;25200;53.394;10.414;2022-08-18T14:43:45;8.98;;;5.03;;
39518;SDS011;25200;53.394;10.414;2022-08-18T14:46:11;6.57;;;4.85;;
39518;SDS011;25200;53.394;10.414;2022-08-18T14:48:38;6.85;;;4.60;;
39518;SDS011;25200;53.394;10.414;2022-08-18T14:51:05;9.32;;;5.53;;
39518;SDS011;25200;53.394;10.414;2022-08-18T14:53:32;7.28;;;4.65;;
39518;SDS011;25200;53.394;10.414;2022-08-18T14:55:58;7.53;;;4.68;;
39518;SDS011;25200;53.394;10.414;2022-08-18T14:58:25;7.40;;;4.90;;
39518;SDS011;25200;53.394;10.414;2022-08-18T15:00:53;7.22;;;4.63;;
39518;SDS011;25200;53.394;10.414;2022-08-18T15:03:21;7.40;;;4.55;;
39518;SDS011;25200;53.394;10.414;2022-08-18T15:05:47;7.72;;;5.10;;
39518;SDS011;25200;53.394;10.414;2022-08-18T15:08:13;9.40;;;4.82;;
39518;SDS011;25200;53.394;10.414;2022-08-18T15:10:38;6.60;;;4.75;;
39518;SDS011;25200;53.394;10.414;2022-08-18T15:13:04;8.95;;;4.45;;
39518;SDS011;25200;53.394;10.414;2022-08-18T15:15:30;8.40;;;4.97;;
39518;SDS011;25200;53.394;10.414;2022-08-18T15:17:56;7.00;;;4.85;;
39518;SDS011;25200;53.394;10.414;2022-08-18T15:20:22;8.38;;;5.00;;
39518;SDS011;25200;53.394;10.414;2022-08-18T15:22:50;8.05;;;4.97;;
39518;SDS011;25200;53.394;10.414;2022-08-18T15:25:35;6.53;;;4.38;;
39518;SDS011;25200;53.394;10.414;2022-08-18T15:28:10;8.23;;;4.60;;
39518;SDS011;25200;53.394;10.414;2022-08-18T15:30:37;6.70;;;4.72;;
39518;SDS011;25200;53.394;10.414;2022-08-18T15:33:03;7.47;;;4.80;;
39518;SDS011;25200;53.394;10.414;2022-08-18T15:35:30;7.78;;;5.00;;
39518;SDS011;25200;53.394;10.414;2022-08-18T15:37:56;8.27;;;5.13;;
39518;SDS011;25200;53.394;10.414;2022-08-18T15:40:23;9.40;;;5.03;;
39518;SDS011;25200;53.394;10.414;2022-08-18T15:42:54;8.98;;;5.35;;
39518;SDS011;25200;53.394;10.414;2022-08-18T15:45:23;8.15;;;5.15;;
39518;SDS011;25200;53.394;10.414;2022-08-18T15:47:59;8.05;;;5.05;;
39518;SDS011;25200;53.394;10.414;2022-08-18T15:50:26;7.97;;;4.82;;
39518;SDS011;25200;53.394;10.414;2022-08-18T15:53:00;9.82;;;6.10;;
39518;SDS011;25200;53.394;10.414;2022-08-18T15:55:31;8.60;;;5.68;;
39518;SDS011;25200;53.394;10.414;2022-08-18T15:57:59;9.07;;;5.50;;
39518;SDS011;25200;53.394;10.414;2022-08-18T16:00:26;9.13;;;6.18;;
39518;SDS011;25200;53.394;10.414;2022-08-18T16:03:03;7.53;;;5.60;;
39518;SDS011;25200;53.394;10.414;2022-08-18T16:05:32;8.75;;;6.43;;
39518;SDS011;25200;53.394;10.414;2022-08-18T16:08:02;7.88;;;5.30;;
39518;SDS011;25200;53.394;10.414;2022-08-18T16:10:30;8.45;;;5.70;;
39518;SDS011;25200;53.394;10.414;2022-08-18T16:12:57;9.57;;;5.80;;
39518;SDS011;25200;53.394;10.414;2022-08-18T16:15:24;10.18;;;6.07;;
39518;SDS011;25200;53.394;10.414;2022-08-18T16:17:51;10.18;;;6.53;;
39518;SDS011;25200;53.394;10.414;2022-08-18T16:20:19;10.60;;;6.63;;
39518;SDS011;25200;53.394;10.414;2022-08-18T16:22:48;9.35;;;6.68;;
39518;SDS011;25200;53.394;10.414;2022-08-18T16:25:14;8.63;;;5.78;;
39518;SDS011;25200;53.394;10.414;2022-08-18T16:27:41;9.10;;;6.47;;
39518;SDS011;25200;53.394;10.414;2022-08-18T16:30:08;10.27;;;6.63;;
39518;SDS011;25200;53.394;10.414;2022-08-18T16:32:35;9.75;;;7.22;;
39518;SDS011;25200;53.394;10.414;2022-08-18T16:35:02;10.27;;;7.00;;
39518;SDS011;25200;53.394;10.414;2022-08-18T16:37:29;7.75;;;6.10;;
39518;SDS011;25200;53.394;10.414;2022-08-18T16:39:55;10.07;;;7.30;;
39518;SDS011;25200;53.394;10.414;2022-08-18T16:42:21;11.15;;;7.88;;
39518;SDS011;25200;53.394;10.414;2022-08-18T16:44:47;10.95;;;7.00;;
39518;SDS011;25200;53.394;10.414;2022-08-18T16:47:13;12.15;;;7.38;;
39518;SDS011;25200;53.394;10.414;2022-08-18T16:49:41;9.38;;;7.13;;
39518;SDS011;25200;53.394;10.414;2022-08-18T16:52:09;10.15;;;7.05;;
39518;SDS011;25200;53.394;10.414;2022-08-18T16:54:37;11.15;;;7.78;;
39518;SDS011;25200;53.394;10.414;2022-08-18T16:57:03;11.25;;;8.88;;
39518;SDS011;25200;53.394;10.414;2022-08-18T16:59:28;11.13;;;8.43;;
39518;SDS011;25200;53.394;10.414;2022-08-18T17:02:13;10.77;;;7.00;;
39518;SDS011;25200;53.394;10.414;2022-08-18T17:04:57;11.63;;;7.47;;
39518;SDS011;25200;53.394;10.414;2022-08-18T17:07:26;9.70;;;6.90;;